sensor_id;sensor_type;location;lat;lon;timestamp;pressure;altitude;pressure_sealevel;temperature;humidity
65666;BME280;52365;47.464;18.976;2023-12-20T00:00:06;99947.91;;;1.21;83.35
65666;BME280;52365;47.464;18.976;2023-12-20T00:00:27;99946.75;;;1.26;83.32
65666;BME280;52365;47.464;18.976;2023-12-20T00:00:48;99943.81;;;0.92;83.60
65666;BME280;52365;47.464;18.976;2023-12-20T00:01:09;99947.97;;;0.96;83.79
65666;BME280;52365;47.464;18.976;2023-12-20T00:01:30;99944.16;;;1.08;83.82
65666;BME280;52365;47.464;18.976;2023-12-20T00:01:51;99943.28;;;1.43;83.90
65666;BME280;52365;47.464;18.976;2023-12-20T00:02:12;99951.22;;;1.54;83.48
65666;BME280;52365;47.464;18.976;2023-12-20T00:02:33;99938.78;;;1.37;83.31
65666;BME280;52365;47.464;18.976;2023-12-20T00:02:54;99941.34;;;1.51;83.21
65666;BME280;52365;47.464;18.976;2023-12-20T00:03:15;99931.56;;;1.41;83.05
65666;BME280;52365;47.464;18.976;2023-12-20T00:03:36;99932.25;;;1.52;83.07
65666;BME280;52365;47.464;18.976;2023-12-20T00:03:52;99940.50;;;1.68;82.79
65666;BME280;52365;47.464;18.976;2023-12-20T00:04:13;99938.59;;;1.72;82.53
65666;BME280;52365;47.464;18.976;2023-12-20T00:04:34;99934.44;;;1.71;82.22
65666;BME280;52365;47.464;18.976;2023-12-20T00:04:55;99933.63;;;1.78;82.21
65666;BME280;52365;47.464;18.976;2023-12-20T00:05:11;99937.63;;;2.08;81.72
65666;BME280;52365;47.464;18.976;2023-12-20T00:05:32;99925.87;;;2.01;81.34
65666;BME280;52365;47.464;18.976;2023-12-20T00:05:55;99928.28;;;1.82;81.19
65666;BME280;52365;47.464;18.976;2023-12-20T00:06:16;99926.41;;;1.79;81.07
65666;BME280;52365;47.464;18.976;2023-12-20T00:06:37;99938.28;;;1.63;80.94
65666;BME280;52365;47.464;18.976;2023-12-20T00:06:58;99937.50;;;1.63;81.03
65666;BME280;52365;47.464;18.976;2023-12-20T00:07:14;99934.38;;;1.79;80.93
65666;BME280;52365;47.464;18.976;2023-12-20T00:07:30;99929.78;;;1.83;80.79
65666;BME280;52365;47.464;18.976;2023-12-20T00:07:51;99935.19;;;1.72;80.63
65666;BME280;52365;47.464;18.976;2023-12-20T00:08:12;99922.75;;;1.55;80.76
65666;BME280;52365;47.464;18.976;2023-12-20T00:08:33;99931.97;;;1.25;80.89
65666;BME280;52365;47.464;18.976;2023-12-20T00:08:54;99937.72;;;1.09;81.18
65666;BME280;52365;47.464;18.976;2023-12-20T00:09:14;99933.53;;;1.15;81.64
65666;BME280;52365;47.464;18.976;2023-12-20T00:09:35;99934.91;;;1.48;81.72
65666;BME280;52365;47.464;18.976;2023-12-20T00:09:56;99930.66;;;1.62;81.58
65666;BME280;52365;47.464;18.976;2023-12-20T00:10:12;99926.94;;;1.52;81.20
65666;BME280;52365;47.464;18.976;2023-12-20T00:10:33;99933.50;;;1.26;81.25
65666;BME280;52365;47.464;18.976;2023-12-20T00:10:54;99931.59;;;1.26;81.47
65666;BME280;52365;47.464;18.976;2023-12-20T00:11:15;99930.91;;;1.12;81.47
65666;BME280;52365;47.464;18.976;2023-12-20T00:11:36;99930.94;;;1.01;81.72
65666;BME280;52365;47.464;18.976;2023-12-20T00:11:57;99927.47;;;1.11;81.94
65666;BME280;52365;47.464;18.976;2023-12-20T00:12:13;99923.25;;;1.28;81.95
65666;BME280;52365;47.464;18.976;2023-12-20T00:12:34;99928.84;;;1.48;81.93
65666;BME280;52365;47.464;18.976;2023-12-20T00:12:55;99929.97;;;1.54;81.70
65666;BME280;52365;47.464;18.976;2023-12-20T00:13:16;99922.03;;;1.47;81.54
65666;BME280;52365;47.464;18.976;2023-12-20T00:13:32;99930.75;;;1.44;81.43
65666;BME280;52365;47.464;18.976;2023-12-20T00:13:53;99929.31;;;1.32;81.41
65666;BME280;52365;47.464;18.976;2023-12-20T00:14:13;99921.69;;;1.34;81.51
65666;BME280;52365;47.464;18.976;2023-12-20T00:14:29;99925.00;;;1.56;81.48
65666;BME280;52365;47.464;18.976;2023-12-20T00:14:50;99922.97;;;1.82;81.32
65666;BME280;52365;47.464;18.976;2023-12-20T00:15:07;99924.87;;;1.81;81.02
65666;BME280;52365;47.464;18.976;2023-12-20T00:15:28;99913.09;;;1.86;80.77
65666;BME280;52365;47.464;18.976;2023-12-20T00:15:49;99917.56;;;1.96;80.45
65666;BME280;52365;47.464;18.976;2023-12-20T00:16:10;99919.78;;;2.05;80.15
65666;BME280;52365;47.464;18.976;2023-12-20T00:16:31;99916.03;;;2.02;79.79
65666;BME280;52365;47.464;18.976;2023-12-20T00:16:47;99914.91;;;1.92;79.53
65666;BME280;52365;47.464;18.976;2023-12-20T00:17:08;99910.88;;;1.73;79.38
65666;BME280;52365;47.464;18.976;2023-12-20T00:17:29;99920.78;;;1.66;79.48
65666;BME280;52365;47.464;18.976;2023-12-20T00:17:50;99920.66;;;1.87;79.65
65666;BME280;52365;47.464;18.976;2023-12-20T00:18:06;99919.88;;;1.94;79.37
65666;BME280;52365;47.464;18.976;2023-12-20T00:18:27;99918.97;;;2.11;79.20
65666;BME280;52365;47.464;18.976;2023-12-20T00:18:43;99926.59;;;2.09;78.92
65666;BME280;52365;47.464;18.976;2023-12-20T00:19:04;99924.34;;;2.04;78.91
65666;BME280;52365;47.464;18.976;2023-12-20T00:19:25;99915.03;;;1.78;79.02
65666;BME280;52365;47.464;18.976;2023-12-20T00:19:46;99921.16;;;1.68;79.15
65666;BME280;52365;47.464;18.976;2023-12-20T00:20:07;99917.31;;;1.76;79.49
65666;BME280;52365;47.464;18.976;2023-12-20T00:20:28;99916.16;;;1.81;79.53
65666;BME280;52365;47.464;18.976;2023-12-20T00:20:50;99916.16;;;1.81;79.56
65666;BME280;52365;47.464;18.976;2023-12-20T00:21:11;99914.94;;;1.89;79.30
65666;BME280;52365;47.464;18.976;2023-12-20T00:21:32;99918.94;;;1.59;79.32
65666;BME280;52365;47.464;18.976;2023-12-20T00:21:53;99914.97;;;1.15;79.64
65666;BME280;52365;47.464;18.976;2023-12-20T00:22:14;99924.09;;;1.07;80.08
65666;BME280;52365;47.464;18.976;2023-12-20T00:22:35;99914.69;;;0.85;80.44
65666;BME280;52365;47.464;18.976;2023-12-20T00:22:56;99922.63;;;0.81;80.82
65666;BME280;52365;47.464;18.976;2023-12-20T00:23:18;99917.34;;;0.74;81.33
65666;BME280;52365;47.464;18.976;2023-12-20T00:23:39;99922.19;;;1.00;81.59
65666;BME280;52365;47.464;18.976;2023-12-20T00:23:55;99908.91;;;1.04;81.59
65666;BME280;52365;47.464;18.976;2023-12-20T00:24:16;99916.13;;;1.07;81.55
65666;BME280;52365;47.464;18.976;2023-12-20T00:24:37;99908.97;;;0.93;81.40
65666;BME280;52365;47.464;18.976;2023-12-20T00:24:58;99914.28;;;0.97;81.61
65666;BME280;52365;47.464;18.976;2023-12-20T00:25:19;99911.16;;;1.09;81.60
65666;BME280;52365;47.464;18.976;2023-12-20T00:25:40;99911.06;;;1.38;81.52
65666;BME280;52365;47.464;18.976;2023-12-20T00:26:01;99913.28;;;1.50;81.13
65666;BME280;52365;47.464;18.976;2023-12-20T00:26:22;99908.78;;;1.40;80.92
65666;BME280;52365;47.464;18.976;2023-12-20T00:26:43;99907.94;;;1.54;80.74
65666;BME280;52365;47.464;18.976;2023-12-20T00:26:58;99907.19;;;1.53;80.52
65666;BME280;52365;47.464;18.976;2023-12-20T00:27:19;99908.69;;;1.58;80.43
65666;BME280;52365;47.464;18.976;2023-12-20T00:27:40;99907.47;;;1.69;80.14
65666;BME280;52365;47.464;18.976;2023-12-20T00:28:02;99900.16;;;1.84;79.83
65666;BME280;52365;47.464;18.976;2023-12-20T00:28:23;99910.16;;;1.62;79.67
65666;BME280;52365;47.464;18.976;2023-12-20T00:28:44;99897.16;;;1.82;79.58
65666;BME280;52365;47.464;18.976;2023-12-20T00:29:05;99902.03;;;1.91;79.31
65666;BME280;52365;47.464;18.976;2023-12-20T00:29:26;99895.44;;;2.10;78.95
65666;BME280;52365;47.464;18.976;2023-12-20T00:29:42;99902.34;;;2.00;78.64
65666;BME280;52365;47.464;18.976;2023-12-20T00:30:05;99900.53;;;1.90;78.56
65666;BME280;52365;47.464;18.976;2023-12-20T00:30:26;99901.94;;;2.05;78.41
65666;BME280;52365;47.464;18.976;2023-12-20T00:30:47;99896.88;;;2.21;78.14
65666;BME280;52365;47.464;18.976;2023-12-20T00:31:08;99905.00;;;2.00;77.98
65666;BME280;52365;47.464;18.976;2023-12-20T00:31:29;99894.78;;;1.98;77.95
65666;BME280;52365;47.464;18.976;2023-12-20T00:31:50;99899.41;;;1.84;78.02
65666;BME280;52365;47.464;18.976;2023-12-20T00:32:11;99891.75;;;1.93;78.03
65666;BME280;52365;47.464;18.976;2023-12-20T00:32:27;99897.81;;;1.97;78.12
65666;BME280;52365;47.464;18.976;2023-12-20T00:32:43;99898.62;;;1.90;78.18
65666;BME280;52365;47.464;18.976;2023-12-20T00:33:06;99902.34;;;2.00;78.01
65666;BME280;52365;47.464;18.976;2023-12-20T00:33:27;99903.63;;;1.81;78.18
65666;BME280;52365;47.464;18.976;2023-12-20T00:33:43;99897.81;;;1.34;78.64
65666;BME280;52365;47.464;18.976;2023-12-20T00:34:04;99897.53;;;1.11;79.41
65666;BME280;52365;47.464;18.976;2023-12-20T00:34:25;99902.13;;;0.99;80.23
65666;BME280;52365;47.464;18.976;2023-12-20T00:34:46;99903.19;;;1.13;80.53
65666;BME280;52365;47.464;18.976;2023-12-20T00:35:07;99899.75;;;1.23;80.76
65666;BME280;52365;47.464;18.976;2023-12-20T00:35:23;99904.69;;;1.24;80.92
65666;BME280;52365;47.464;18.976;2023-12-20T00:35:40;99893.75;;;1.08;81.06
65666;BME280;52365;47.464;18.976;2023-12-20T00:35:55;99891.16;;;0.87;81.46
65666;BME280;52365;47.464;18.976;2023-12-20T00:36:16;99898.41;;;0.68;82.01
65666;BME280;52365;47.464;18.976;2023-12-20T00:36:37;99893.44;;;0.85;82.35
65666;BME280;52365;47.464;18.976;2023-12-20T00:36:58;99895.31;;;0.88;82.67
65666;BME280;52365;47.464;18.976;2023-12-20T00:37:19;99901.37;;;0.95;82.75
65666;BME280;52365;47.464;18.976;2023-12-20T00:37:40;99893.81;;;0.83;82.87
65666;BME280;52365;47.464;18.976;2023-12-20T00:38:01;99892.25;;;1.00;83.14
65666;BME280;52365;47.464;18.976;2023-12-20T00:38:22;99884.66;;;1.06;83.08
65666;BME280;52365;47.464;18.976;2023-12-20T00:38:39;99892.56;;;1.16;82.90
65666;BME280;52365;47.464;18.976;2023-12-20T00:38:54;99895.22;;;1.16;83.01
65666;BME280;52365;47.464;18.976;2023-12-20T00:39:11;99891.53;;;0.89;83.16
65666;BME280;52365;47.464;18.976;2023-12-20T00:39:32;99882.50;;;0.68;83.40
65666;BME280;52365;47.464;18.976;2023-12-20T00:39:48;99883.22;;;0.80;83.54
65666;BME280;52365;47.464;18.976;2023-12-20T00:40:05;99876.41;;;0.79;83.69
65666;BME280;52365;47.464;18.976;2023-12-20T00:40:26;99888.53;;;0.80;83.83
65666;BME280;52365;47.464;18.976;2023-12-20T00:40:47;99881.00;;;0.64;84.03
65666;BME280;52365;47.464;18.976;2023-12-20T00:41:08;99886.69;;;0.52;84.36
65666;BME280;52365;47.464;18.976;2023-12-20T00:41:24;99882.16;;;0.38;84.77
65666;BME280;52365;47.464;18.976;2023-12-20T00:41:45;99885.53;;;0.53;84.90
65666;BME280;52365;47.464;18.976;2023-12-20T00:42:06;99881.75;;;0.64;84.97
65666;BME280;52365;47.464;18.976;2023-12-20T00:42:27;99883.25;;;0.72;84.95
65666;BME280;52365;47.464;18.976;2023-12-20T00:42:43;99876.81;;;0.66;84.97
65666;BME280;52365;47.464;18.976;2023-12-20T00:43:04;99874.88;;;0.74;85.06
65666;BME280;52365;47.464;18.976;2023-12-20T00:43:19;99880.59;;;0.76;85.02
65666;BME280;52365;47.464;18.976;2023-12-20T00:43:40;99882.88;;;0.70;85.06
65666;BME280;52365;47.464;18.976;2023-12-20T00:44:01;99882.44;;;0.83;85.08
65666;BME280;52365;47.464;18.976;2023-12-20T00:44:17;99882.78;;;0.95;84.86
65666;BME280;52365;47.464;18.976;2023-12-20T00:44:33;99877.53;;;0.81;84.86
65666;BME280;52365;47.464;18.976;2023-12-20T00:44:54;99881.00;;;0.60;84.97
65666;BME280;52365;47.464;18.976;2023-12-20T00:45:15;99881.78;;;0.57;85.35
65666;BME280;52365;47.464;18.976;2023-12-20T00:45:36;99881.63;;;1.00;85.33
65666;BME280;52365;47.464;18.976;2023-12-20T00:45:57;99878.19;;;1.10;85.02
65666;BME280;52365;47.464;18.976;2023-12-20T00:46:20;99875.06;;;1.30;84.64
65666;BME280;52365;47.464;18.976;2023-12-20T00:46:41;99880.06;;;1.10;84.62
65666;BME280;52365;47.464;18.976;2023-12-20T00:47:02;99879.22;;;1.34;84.37
65666;BME280;52365;47.464;18.976;2023-12-20T00:47:23;99873.47;;;1.50;84.02
65666;BME280;52365;47.464;18.976;2023-12-20T00:47:45;99881.41;;;1.50;83.61
65666;BME280;52365;47.464;18.976;2023-12-20T00:48:01;99876.06;;;1.54;83.23
65666;BME280;52365;47.464;18.976;2023-12-20T00:48:22;99876.84;;;1.54;83.09
65666;BME280;52365;47.464;18.976;2023-12-20T00:48:43;99876.31;;;1.00;83.00
65666;BME280;52365;47.464;18.976;2023-12-20T00:49:06;99872.22;;;0.78;83.77
65666;BME280;52365;47.464;18.976;2023-12-20T00:49:27;99874.81;;;0.99;84.02
65666;BME280;52365;47.464;18.976;2023-12-20T00:49:43;99870.94;;;1.18;83.83
65666;BME280;52365;47.464;18.976;2023-12-20T00:50:04;99879.84;;;0.75;83.90
65666;BME280;52365;47.464;18.976;2023-12-20T00:50:25;99870.41;;;0.42;84.32
65666;BME280;52365;47.464;18.976;2023-12-20T00:50:46;99866.25;;;0.31;84.80
65666;BME280;52365;47.464;18.976;2023-12-20T00:51:07;99870.06;;;0.33;85.23
65666;BME280;52365;47.464;18.976;2023-12-20T00:51:23;99872.69;;;0.47;85.29
65666;BME280;52365;47.464;18.976;2023-12-20T00:51:44;99870.06;;;0.26;85.62
65666;BME280;52365;47.464;18.976;2023-12-20T00:52:00;99868.88;;;0.59;85.83
65666;BME280;52365;47.464;18.976;2023-12-20T00:52:16;99872.97;;;0.92;85.75
65666;BME280;52365;47.464;18.976;2023-12-20T00:52:38;99864.47;;;1.22;85.47
65666;BME280;52365;47.464;18.976;2023-12-20T00:52:59;99875.91;;;1.16;84.94
65666;BME280;52365;47.464;18.976;2023-12-20T00:53:19;99869.53;;;0.95;84.76
65666;BME280;52365;47.464;18.976;2023-12-20T00:53:40;99872.91;;;1.03;84.68
65666;BME280;52365;47.464;18.976;2023-12-20T00:53:56;99868.03;;;0.94;84.65
65666;BME280;52365;47.464;18.976;2023-12-20T00:54:17;99865.69;;;1.07;84.62
65666;BME280;52365;47.464;18.976;2023-12-20T00:54:38;99867.19;;;1.12;84.33
65666;BME280;52365;47.464;18.976;2023-12-20T00:54:59;99865.13;;;1.44;84.17
65666;BME280;52365;47.464;18.976;2023-12-20T00:55:20;99863.09;;;1.66;83.65
65666;BME280;52365;47.464;18.976;2023-12-20T00:55:41;99857.41;;;1.68;83.18
65666;BME280;52365;47.464;18.976;2023-12-20T00:55:57;99862.34;;;1.66;82.69
65666;BME280;52365;47.464;18.976;2023-12-20T00:56:19;99862.03;;;1.53;82.46
65666;BME280;52365;47.464;18.976;2023-12-20T00:56:35;99856.16;;;1.80;82.16
65666;BME280;52365;47.464;18.976;2023-12-20T00:56:51;99858.34;;;1.92;81.83
65666;BME280;52365;47.464;18.976;2023-12-20T00:57:07;99850.69;;;2.01;81.43
65666;BME280;52365;47.464;18.976;2023-12-20T00:57:28;99857.50;;;2.06;81.09
65666;BME280;52365;47.464;18.976;2023-12-20T00:57:49;99855.06;;;2.22;80.55
65666;BME280;52365;47.464;18.976;2023-12-20T00:58:10;99856.97;;;2.25;79.79
65666;BME280;52365;47.464;18.976;2023-12-20T00:58:31;99847.41;;;2.31;79.36
65666;BME280;52365;47.464;18.976;2023-12-20T00:58:47;99858.25;;;2.06;79.17
65666;BME280;52365;47.464;18.976;2023-12-20T00:59:03;99861.53;;;1.72;79.28
65666;BME280;52365;47.464;18.976;2023-12-20T00:59:19;99846.91;;;1.50;79.60
65666;BME280;52365;47.464;18.976;2023-12-20T00:59:35;99851.59;;;1.21;80.10
65666;BME280;52365;47.464;18.976;2023-12-20T00:59:56;99849.63;;;1.36;80.26
65666;BME280;52365;47.464;18.976;2023-12-20T01:00:12;99855.66;;;1.43;80.39
65666;BME280;52365;47.464;18.976;2023-12-20T01:00:34;99849.94;;;1.48;80.57
65666;BME280;52365;47.464;18.976;2023-12-20T01:00:49;99853.19;;;1.70;80.59
65666;BME280;52365;47.464;18.976;2023-12-20T01:01:05;99850.06;;;1.86;80.41
65666;BME280;52365;47.464;18.976;2023-12-20T01:01:26;99847.94;;;1.67;80.24
65666;BME280;52365;47.464;18.976;2023-12-20T01:01:47;99852.16;;;1.57;80.25
65666;BME280;52365;47.464;18.976;2023-12-20T01:02:08;99855.91;;;1.63;80.34
65666;BME280;52365;47.464;18.976;2023-12-20T01:02:25;99846.31;;;1.80;80.31
65666;BME280;52365;47.464;18.976;2023-12-20T01:02:46;99850.53;;;1.70;80.22
65666;BME280;52365;47.464;18.976;2023-12-20T01:03:09;99847.87;;;1.74;80.30
65666;BME280;52365;47.464;18.976;2023-12-20T01:03:25;99852.50;;;1.63;80.27
65666;BME280;52365;47.464;18.976;2023-12-20T01:03:46;99849.50;;;1.54;80.38
65666;BME280;52365;47.464;18.976;2023-12-20T01:04:07;99851.16;;;1.37;80.52
65666;BME280;52365;47.464;18.976;2023-12-20T01:04:23;99845.44;;;1.35;80.65
65666;BME280;52365;47.464;18.976;2023-12-20T01:04:39;99849.75;;;1.14;80.78
65666;BME280;52365;47.464;18.976;2023-12-20T01:05:00;99858.16;;;0.88;81.23
65666;BME280;52365;47.464;18.976;2023-12-20T01:05:21;99851.00;;;0.88;81.72
65666;BME280;52365;47.464;18.976;2023-12-20T01:05:43;99856.72;;;0.69;82.15
65666;BME280;52365;47.464;18.976;2023-12-20T01:06:04;99850.66;;;0.68;82.55
65666;BME280;52365;47.464;18.976;2023-12-20T01:06:26;99850.72;;;0.54;83.00
65666;BME280;52365;47.464;18.976;2023-12-20T01:06:46;99850.25;;;0.77;83.29
65666;BME280;52365;47.464;18.976;2023-12-20T01:07:08;99852.91;;;0.73;83.29
65666;BME280;52365;47.464;18.976;2023-12-20T01:07:28;99844.59;;;0.71;83.51
65666;BME280;52365;47.464;18.976;2023-12-20T01:07:49;99851.41;;;0.80;83.72
65666;BME280;52365;47.464;18.976;2023-12-20T01:08:10;99852.56;;;0.75;83.72
65666;BME280;52365;47.464;18.976;2023-12-20T01:08:26;99853.94;;;1.08;83.85
65666;BME280;52365;47.464;18.976;2023-12-20T01:08:42;99854.25;;;1.21;83.60
65666;BME280;52365;47.464;18.976;2023-12-20T01:09:03;99840.97;;;1.24;83.38
65666;BME280;52365;47.464;18.976;2023-12-20T01:09:24;99845.91;;;1.22;83.01
65666;BME280;52365;47.464;18.976;2023-12-20T01:09:47;99852.06;;;1.02;83.33
65666;BME280;52365;47.464;18.976;2023-12-20T01:10:08;99845.19;;;1.15;83.18
65666;BME280;52365;47.464;18.976;2023-12-20T01:10:29;99843.97;;;1.26;82.88
65666;BME280;52365;47.464;18.976;2023-12-20T01:10:45;99842.63;;;0.97;82.72
65666;BME280;52365;47.464;18.976;2023-12-20T01:11:07;99840.75;;;0.87;83.15
65666;BME280;52365;47.464;18.976;2023-12-20T01:11:28;99839.66;;;0.73;83.18
65666;BME280;52365;47.464;18.976;2023-12-20T01:11:49;99837.00;;;0.73;83.37
65666;BME280;52365;47.464;18.976;2023-12-20T01:12:10;99839.91;;;1.04;83.47
65666;BME280;52365;47.464;18.976;2023-12-20T01:12:31;99847.13;;;1.07;83.24
65666;BME280;52365;47.464;18.976;2023-12-20T01:12:52;99843.00;;;0.95;83.17
65666;BME280;52365;47.464;18.976;2023-12-20T01:13:13;99836.06;;;1.19;83.20
65666;BME280;52365;47.464;18.976;2023-12-20T01:13:34;99838.53;;;1.48;82.94
65666;BME280;52365;47.464;18.976;2023-12-20T01:13:55;99837.41;;;1.49;82.40
65666;BME280;52365;47.464;18.976;2023-12-20T01:14:15;99829.81;;;1.51;82.28
65666;BME280;52365;47.464;18.976;2023-12-20T01:14:36;99833.50;;;1.64;81.92
65666;BME280;52365;47.464;18.976;2023-12-20T01:14:57;99834.47;;;1.36;81.81
65666;BME280;52365;47.464;18.976;2023-12-20T01:15:19;99835.22;;;1.37;81.85
65666;BME280;52365;47.464;18.976;2023-12-20T01:15:40;99836.16;;;1.02;81.87
65666;BME280;52365;47.464;18.976;2023-12-20T01:15:57;99834.78;;;0.54;82.55
65666;BME280;52365;47.464;18.976;2023-12-20T01:16:18;99832.16;;;0.43;82.99
65666;BME280;52365;47.464;18.976;2023-12-20T01:16:39;99834.09;;;0.36;83.47
65666;BME280;52365;47.464;18.976;2023-12-20T01:17:00;99837.06;;;0.52;83.72
65666;BME280;52365;47.464;18.976;2023-12-20T01:17:21;99833.25;;;0.71;83.77
65666;BME280;52365;47.464;18.976;2023-12-20T01:17:42;99834.00;;;0.71;83.88
65666;BME280;52365;47.464;18.976;2023-12-20T01:18:03;99834.00;;;0.75;83.85
65666;BME280;52365;47.464;18.976;2023-12-20T01:18:24;99831.34;;;0.64;83.79
65666;BME280;52365;47.464;18.976;2023-12-20T01:18:45;99832.87;;;0.62;84.14
65666;BME280;52365;47.464;18.976;2023-12-20T01:19:05;99830.59;;;0.71;84.20
65666;BME280;52365;47.464;18.976;2023-12-20T01:19:27;99831.69;;;0.77;84.16
65666;BME280;52365;47.464;18.976;2023-12-20T01:19:49;99833.84;;;1.07;84.06
65666;BME280;52365;47.464;18.976;2023-12-20T01:20:10;99825.47;;;1.16;83.73
65666;BME280;52365;47.464;18.976;2023-12-20T01:20:31;99833.09;;;1.03;83.48
65666;BME280;52365;47.464;18.976;2023-12-20T01:20:52;99832.44;;;0.74;83.58
65666;BME280;52365;47.464;18.976;2023-12-20T01:21:13;99829.03;;;0.73;83.85
65666;BME280;52365;47.464;18.976;2023-12-20T01:21:28;99828.34;;;0.62;83.98
65666;BME280;52365;47.464;18.976;2023-12-20T01:21:49;99834.00;;;0.71;84.06
65666;BME280;52365;47.464;18.976;2023-12-20T01:22:05;99830.19;;;0.72;84.08
65666;BME280;52365;47.464;18.976;2023-12-20T01:22:26;99830.22;;;0.65;84.04
65666;BME280;52365;47.464;18.976;2023-12-20T01:22:47;99826.44;;;0.56;84.36
65666;BME280;52365;47.464;18.976;2023-12-20T01:23:03;99825.31;;;0.60;84.46
65666;BME280;52365;47.464;18.976;2023-12-20T01:23:24;99824.56;;;0.56;84.50
65666;BME280;52365;47.464;18.976;2023-12-20T01:23:45;99825.69;;;0.59;84.61
65666;BME280;52365;47.464;18.976;2023-12-20T01:24:06;99821.13;;;0.66;84.72
65666;BME280;52365;47.464;18.976;2023-12-20T01:24:22;99817.63;;;0.91;84.70
65666;BME280;52365;47.464;18.976;2023-12-20T01:24:43;99817.25;;;0.89;84.54
65666;BME280;52365;47.464;18.976;2023-12-20T01:25:04;99815.84;;;0.52;84.69
65666;BME280;52365;47.464;18.976;2023-12-20T01:25:25;99821.91;;;0.56;84.90
65666;BME280;52365;47.464;18.976;2023-12-20T01:25:46;99818.44;;;0.73;84.98
65666;BME280;52365;47.464;18.976;2023-12-20T01:26:07;99821.81;;;0.85;84.73
65666;BME280;52365;47.464;18.976;2023-12-20T01:26:28;99806.69;;;0.74;84.79
65666;BME280;52365;47.464;18.976;2023-12-20T01:26:49;99817.34;;;0.57;84.84
65666;BME280;52365;47.464;18.976;2023-12-20T01:27:10;99813.59;;;0.50;84.99
65666;BME280;52365;47.464;18.976;2023-12-20T01:27:30;99814.38;;;0.30;85.41
65666;BME280;52365;47.464;18.976;2023-12-20T01:27:51;99815.16;;;0.19;85.86
65666;BME280;52365;47.464;18.976;2023-12-20T01:28:08;99820.47;;;0.19;86.11
65666;BME280;52365;47.464;18.976;2023-12-20T01:28:29;99810.22;;;0.21;86.30
65666;BME280;52365;47.464;18.976;2023-12-20T01:28:50;99807.56;;;0.36;86.50
65666;BME280;52365;47.464;18.976;2023-12-20T01:29:11;99811.69;;;0.44;86.56
65666;BME280;52365;47.464;18.976;2023-12-20T01:29:27;99811.72;;;0.40;86.46
65666;BME280;52365;47.464;18.976;2023-12-20T01:29:48;99807.94;;;0.31;86.58
65666;BME280;52365;47.464;18.976;2023-12-20T01:30:05;99817.06;;;0.22;86.65
65666;BME280;52365;47.464;18.976;2023-12-20T01:30:26;99805.31;;;0.16;86.80
65666;BME280;52365;47.464;18.976;2023-12-20T01:30:47;99804.13;;;0.49;87.09
65666;BME280;52365;47.464;18.976;2023-12-20T01:31:08;99814.34;;;0.51;86.80
65666;BME280;52365;47.464;18.976;2023-12-20T01:31:29;99812.84;;;0.46;86.76
65666;BME280;52365;47.464;18.976;2023-12-20T01:31:50;99808.72;;;0.31;86.88
65666;BME280;52365;47.464;18.976;2023-12-20T01:32:11;99809.84;;;0.44;86.89
65666;BME280;52365;47.464;18.976;2023-12-20T01:32:32;99813.19;;;0.52;86.82
65666;BME280;52365;47.464;18.976;2023-12-20T01:32:53;99812.88;;;0.32;86.82
65666;BME280;52365;47.464;18.976;2023-12-20T01:33:10;99804.88;;;0.54;86.85
65666;BME280;52365;47.464;18.976;2023-12-20T01:33:31;99806.03;;;0.45;86.69
65666;BME280;52365;47.464;18.976;2023-12-20T01:33:52;99809.09;;;0.37;86.72
65666;BME280;52365;47.464;18.976;2023-12-20T01:34:13;99812.47;;;0.41;86.83
65666;BME280;52365;47.464;18.976;2023-12-20T01:34:34;99811.37;;;0.20;86.91
65666;BME280;52365;47.464;18.976;2023-12-20T01:34:55;99807.22;;;0.16;87.17
65666;BME280;52365;47.464;18.976;2023-12-20T01:35:16;99803.06;;;0.11;87.71
65666;BME280;52365;47.464;18.976;2023-12-20T01:35:37;99800.03;;;0.16;87.52
65666;BME280;52365;47.464;18.976;2023-12-20T01:35:58;99806.81;;;0.35;87.55
65666;BME280;52365;47.464;18.976;2023-12-20T01:36:19;99803.44;;;0.24;87.40
65666;BME280;52365;47.464;18.976;2023-12-20T01:36:40;99798.53;;;0.19;87.59
65666;BME280;52365;47.464;18.976;2023-12-20T01:37:01;99804.97;;;0.18;87.68
65666;BME280;52365;47.464;18.976;2023-12-20T01:37:23;99808.00;;;0.02;87.85
65666;BME280;52365;47.464;18.976;2023-12-20T01:37:46;99797.03;;;0.00;88.00
65666;BME280;52365;47.464;18.976;2023-12-20T01:38:07;99801.56;;;-0.15;88.20
65666;BME280;52365;47.464;18.976;2023-12-20T01:38:27;99803.09;;;-0.10;88.42
65666;BME280;52365;47.464;18.976;2023-12-20T01:38:43;99798.91;;;0.03;88.51
65666;BME280;52365;47.464;18.976;2023-12-20T01:39:04;99798.53;;;0.19;88.44
65666;BME280;52365;47.464;18.976;2023-12-20T01:39:25;99804.97;;;0.11;88.34
65666;BME280;52365;47.464;18.976;2023-12-20T01:39:46;99800.38;;;0.33;88.32
65666;BME280;52365;47.464;18.976;2023-12-20T01:40:07;99802.97;;;0.50;87.99
65666;BME280;52365;47.464;18.976;2023-12-20T01:40:28;99796.97;;;0.32;87.98
65666;BME280;52365;47.464;18.976;2023-12-20T01:40:49;99807.97;;;0.20;87.96
65666;BME280;52365;47.464;18.976;2023-12-20T01:41:05;99801.91;;;0.09;88.01
65666;BME280;52365;47.464;18.976;2023-12-20T01:41:26;99800.03;;;0.13;88.16
65666;BME280;52365;47.464;18.976;2023-12-20T01:41:47;99803.81;;;0.22;88.07
65666;BME280;52365;47.464;18.976;2023-12-20T01:42:03;99803.03;;;0.36;87.90
65666;BME280;52365;47.464;18.976;2023-12-20T01:42:24;99800.28;;;0.61;87.82
65666;BME280;52365;47.464;18.976;2023-12-20T01:42:45;99799.22;;;0.41;87.48
65666;BME280;52365;47.464;18.976;2023-12-20T01:43:06;99798.13;;;0.20;87.74
65666;BME280;52365;47.464;18.976;2023-12-20T01:43:29;99800.03;;;0.13;87.74
65666;BME280;52365;47.464;18.976;2023-12-20T01:43:45;99803.06;;;0.04;87.94
65666;BME280;52365;47.464;18.976;2023-12-20T01:44:06;99796.25;;;0.07;87.92
65666;BME280;52365;47.464;18.976;2023-12-20T01:44:26;99796.66;;;0.05;88.05
65666;BME280;52365;47.464;18.976;2023-12-20T01:44:47;99801.16;;;0.19;88.01
65666;BME280;52365;47.464;18.976;2023-12-20T01:45:08;99795.91;;;0.01;88.08
65666;BME280;52365;47.464;18.976;2023-12-20T01:45:29;99792.50;;;0.01;88.13
65666;BME280;52365;47.464;18.976;2023-12-20T01:45:51;99794.00;;;-0.02;88.21